sensor_id;sensor_type;location;lat;lon;timestamp;pressure;altitude;pressure_sealevel;temperature;humidity
61526;BME280;47394;41.366;-8.738;2022-09-13T00:01:56;74617.91;;;-144.74;81.66
61526;BME280;47394;41.366;-8.738;2022-09-13T00:03:57;74611.88;;;-144.74;81.40
61526;BME280;47394;41.366;-8.738;2022-09-13T00:06:06;74601.84;;;-144.74;81.48
61526;BME280;47394;41.366;-8.738;2022-09-13T00:08:07;74611.88;;;-144.74;81.59
61526;BME280;47394;41.366;-8.738;2022-09-13T00:10:08;74605.84;;;-144.74;81.41
61526;BME280;47394;41.366;-8.738;2022-09-13T00:12:09;74605.84;;;-144.74;81.10
61526;BME280;47394;41.366;-8.738;2022-09-13T00:14:09;74599.84;;;-144.74;80.94
61526;BME280;47394;41.366;-8.738;2022-09-13T00:16:12;74593.81;;;-144.74;80.89
61526;BME280;47394;41.366;-8.738;2022-09-13T00:18:13;74585.78;;;-144.74;80.73
61526;BME280;47394;41.366;-8.738;2022-09-13T00:20:14;74587.78;;;-144.74;80.65
61526;BME280;47394;41.366;-8.738;2022-09-13T00:22:14;74587.78;;;-144.74;80.53
61526;BME280;47394;41.366;-8.738;2022-09-13T00:24:15;74585.78;;;-144.74;80.59
61526;BME280;47394;41.366;-8.738;2022-09-13T00:26:21;74583.78;;;-144.74;80.47
61526;BME280;47394;41.366;-8.738;2022-09-13T00:28:23;74577.75;;;-144.74;80.41
61526;BME280;47394;41.366;-8.738;2022-09-13T00:30:23;74575.75;;;-144.74;80.19
61526;BME280;47394;41.366;-8.738;2022-09-13T00:32:24;74569.72;;;-144.74;80.30
61526;BME280;47394;41.366;-8.738;2022-09-13T00:34:25;74575.75;;;-144.74;80.37
61526;BME280;47394;41.366;-8.738;2022-09-13T00:36:26;74571.72;;;-144.74;80.14
61526;BME280;47394;41.366;-8.738;2022-09-13T00:38:27;74565.69;;;-144.74;79.86
61526;BME280;47394;41.366;-8.738;2022-09-13T00:40:28;74569.72;;;-144.74;79.97
61526;BME280;47394;41.366;-8.738;2022-09-13T00:42:31;74559.69;;;-144.74;79.43
61526;BME280;47394;41.366;-8.738;2022-09-13T00:46:57;74551.66;;;-144.74;78.71
61526;BME280;47394;41.366;-8.738;2022-09-13T00:49:23;74543.63;;;-144.74;78.53
61526;BME280;47394;41.366;-8.738;2022-09-13T00:51:27;74537.59;;;-144.74;78.48
61526;BME280;47394;41.366;-8.738;2022-09-13T00:53:30;74531.56;;;-144.74;78.44
61526;BME280;47394;41.366;-8.738;2022-09-13T00:55:52;74537.59;;;-144.74;78.36
61526;BME280;47394;41.366;-8.738;2022-09-13T00:58:05;74529.56;;;-144.74;78.34
61526;BME280;47394;41.366;-8.738;2022-09-13T01:00:10;74527.56;;;-144.74;78.35
61526;BME280;47394;41.366;-8.738;2022-09-13T01:02:13;74535.59;;;-144.74;78.07
61526;BME280;47394;41.366;-8.738;2022-09-13T01:04:15;74525.53;;;-144.74;77.90
61526;BME280;47394;41.366;-8.738;2022-09-13T01:06:20;74521.53;;;-144.74;77.90
61526;BME280;47394;41.366;-8.738;2022-09-13T01:08:24;74517.50;;;-144.74;77.94
61526;BME280;47394;41.366;-8.738;2022-09-13T01:10:25;74513.50;;;-144.74;77.86
61526;BME280;47394;41.366;-8.738;2022-09-13T01:12:47;74523.53;;;-144.74;77.92
61526;BME280;47394;41.366;-8.738;2022-09-13T01:14:54;74517.50;;;-144.74;77.80
61526;BME280;47394;41.366;-8.738;2022-09-13T01:16:56;74511.50;;;-144.74;77.96
61526;BME280;47394;41.366;-8.738;2022-09-13T01:18:57;74501.44;;;-144.74;77.84
61526;BME280;47394;41.366;-8.738;2022-09-13T01:33:27;74511.50;;;-144.74;78.13
61526;BME280;47394;41.366;-8.738;2022-09-13T01:37:49;74505.47;;;-144.74;78.90
61526;BME280;47394;41.366;-8.738;2022-09-13T01:47:26;74547.63;;;-144.74;82.26
61526;BME280;47394;41.366;-8.738;2022-09-13T01:56:48;74581.75;;;-144.74;84.69
61526;BME280;47394;41.366;-8.738;2022-09-13T01:59:03;74591.81;;;-144.74;84.98
61526;BME280;47394;41.366;-8.738;2022-09-13T02:03:21;74591.81;;;-144.74;85.63
61526;BME280;47394;41.366;-8.738;2022-09-13T02:05:36;74589.78;;;-144.74;85.60
61526;BME280;47394;41.366;-8.738;2022-09-13T02:07:41;74589.78;;;-144.74;86.06
61526;BME280;47394;41.366;-8.738;2022-09-13T02:09:48;74593.81;;;-144.74;86.12
61526;BME280;47394;41.366;-8.738;2022-09-13T02:11:55;74605.84;;;-144.74;86.06
61526;BME280;47394;41.366;-8.738;2022-09-13T02:14:13;74609.88;;;-144.74;86.47
61526;BME280;47394;41.366;-8.738;2022-09-13T02:16:20;74611.88;;;-144.74;86.66
61526;BME280;47394;41.366;-8.738;2022-09-13T02:18:29;74603.84;;;-144.74;86.70
61526;BME280;47394;41.366;-8.738;2022-09-13T02:20:36;74605.84;;;-144.74;86.61
61526;BME280;47394;41.366;-8.738;2022-09-13T02:22:44;74599.84;;;-144.74;86.66
61526;BME280;47394;41.366;-8.738;2022-09-13T02:24:52;74605.84;;;-144.74;86.52
61526;BME280;47394;41.366;-8.738;2022-09-13T02:26:57;74613.88;;;-144.74;86.86
61526;BME280;47394;41.366;-8.738;2022-09-13T02:29:04;74609.88;;;-144.74;87.11
61526;BME280;47394;41.366;-8.738;2022-09-13T02:31:08;74607.88;;;-144.74;87.45
61526;BME280;47394;41.366;-8.738;2022-09-13T02:33:11;74627.94;;;-144.74;88.25
61526;BME280;47394;41.366;-8.738;2022-09-13T02:35:23;74627.94;;;-144.74;88.55
61526;BME280;47394;41.366;-8.738;2022-09-13T02:37:28;74627.94;;;-144.74;88.76
61526;BME280;47394;41.366;-8.738;2022-09-13T02:39:31;74623.94;;;-144.74;89.05
61526;BME280;47394;41.366;-8.738;2022-09-13T02:44:22;74623.94;;;-144.74;89.68
61526;BME280;47394;41.366;-8.738;2022-09-13T02:49:18;74631.97;;;-144.74;90.51
61526;BME280;47394;41.366;-8.738;2022-09-13T02:51:38;74637.97;;;-144.74;90.93
61526;BME280;47394;41.366;-8.738;2022-09-13T02:54:13;74635.97;;;-144.74;90.91
61526;BME280;47394;41.366;-8.738;2022-09-13T02:58:31;74637.97;;;-144.74;91.50
61526;BME280;47394;41.366;-8.738;2022-09-13T03:00:35;74637.97;;;-144.74;91.33
61526;BME280;47394;41.366;-8.738;2022-09-13T03:02:36;74637.97;;;-144.74;91.71
61526;BME280;47394;41.366;-8.738;2022-09-13T03:04:39;74635.97;;;-144.74;91.62
61526;BME280;47394;41.366;-8.738;2022-09-13T03:06:40;74629.94;;;-144.74;91.76
61526;BME280;47394;41.366;-8.738;2022-09-13T03:08:41;74627.94;;;-144.74;91.48
61526;BME280;47394;41.366;-8.738;2022-09-13T03:13:11;74623.94;;;-144.74;91.28
61526;BME280;47394;41.366;-8.738;2022-09-13T03:17:48;74617.91;;;-144.74;91.14
61526;BME280;47394;41.366;-8.738;2022-09-13T03:20:07;74611.88;;;-144.74;90.91
61526;BME280;47394;41.366;-8.738;2022-09-13T03:31:30;74617.91;;;-144.74;91.05
61526;BME280;47394;41.366;-8.738;2022-09-13T03:36:11;74617.91;;;-144.74;91.32
61526;BME280;47394;41.366;-8.738;2022-09-13T03:44:37;74631.97;;;-144.74;93.29
61526;BME280;47394;41.366;-8.738;2022-09-13T03:46:41;74635.97;;;-144.74;93.81
61526;BME280;47394;41.366;-8.738;2022-09-13T03:48:43;74637.97;;;-144.74;94.10
61526;BME280;47394;41.366;-8.738;2022-09-13T03:50:46;74642.00;;;-144.74;94.44
61526;BME280;47394;41.366;-8.738;2022-09-13T03:52:53;74650.03;;;-144.74;94.49
61526;BME280;47394;41.366;-8.738;2022-09-13T03:54:56;74662.06;;;-144.74;94.97
61526;BME280;47394;41.366;-8.738;2022-09-13T03:57:17;74656.06;;;-144.74;94.95
61526;BME280;47394;41.366;-8.738;2022-09-13T03:59:19;74652.03;;;-144.74;94.87
61526;BME280;47394;41.366;-8.738;2022-09-13T04:01:22;74654.03;;;-144.74;94.71
61526;BME280;47394;41.366;-8.738;2022-09-13T04:03:23;74658.06;;;-144.74;94.33
61526;BME280;47394;41.366;-8.738;2022-09-13T04:05:24;74664.06;;;-144.74;94.16
61526;BME280;47394;41.366;-8.738;2022-09-13T04:07:24;74646.00;;;-144.74;93.97
61526;BME280;47394;41.366;-8.738;2022-09-13T04:09:25;74642.00;;;-144.74;93.76
61526;BME280;47394;41.366;-8.738;2022-09-13T04:11:26;74639.97;;;-144.74;93.75
61526;BME280;47394;41.366;-8.738;2022-09-13T04:13:27;74646.00;;;-144.74;93.92
61526;BME280;47394;41.366;-8.738;2022-09-13T04:15:29;74650.03;;;-144.74;94.16
61526;BME280;47394;41.366;-8.738;2022-09-13T04:17:33;74642.00;;;-144.74;94.19
61526;BME280;47394;41.366;-8.738;2022-09-13T04:19:33;74650.03;;;-144.74;93.67
61526;BME280;47394;41.366;-8.738;2022-09-13T04:21:34;74650.03;;;-144.74;93.65
61526;BME280;47394;41.366;-8.738;2022-09-13T04:23:35;74642.00;;;-144.74;94.10
61526;BME280;47394;41.366;-8.738;2022-09-13T04:25:39;74652.03;;;-144.74;93.92
61526;BME280;47394;41.366;-8.738;2022-09-13T04:27:40;74654.03;;;-144.74;93.74
61526;BME280;47394;41.366;-8.738;2022-09-13T04:29:40;74652.03;;;-144.74;93.96
61526;BME280;47394;41.366;-8.738;2022-09-13T04:31:41;74652.03;;;-144.74;93.90
61526;BME280;47394;41.366;-8.738;2022-09-13T04:33:42;74662.06;;;-144.74;93.89
61526;BME280;47394;41.366;-8.738;2022-09-13T04:35:42;74656.06;;;-144.74;93.71
61526;BME280;47394;41.366;-8.738;2022-09-13T04:37:43;74654.03;;;-144.74;93.39
61526;BME280;47394;41.366;-8.738;2022-09-13T04:39:44;74654.03;;;-144.74;93.14
61526;BME280;47394;41.366;-8.738;2022-09-13T04:41:45;74662.06;;;-144.74;93.08
61526;BME280;47394;41.366;-8.738;2022-09-13T04:43:49;74654.03;;;-144.74;92.99
61526;BME280;47394;41.366;-8.738;2022-09-13T04:45:50;74658.06;;;-144.74;92.44
61526;BME280;47394;41.366;-8.738;2022-09-13T04:47:51;74658.06;;;-144.74;92.59
61526;BME280;47394;41.366;-8.738;2022-09-13T04:49:53;74650.03;;;-144.74;92.19
61526;BME280;47394;41.366;-8.738;2022-09-13T04:51:54;74658.06;;;-144.74;91.52
61526;BME280;47394;41.366;-8.738;2022-09-13T04:53:55;74654.03;;;-144.74;91.57
61526;BME280;47394;41.366;-8.738;2022-09-13T04:56:01;74656.06;;;-144.74;91.64
61526;BME280;47394;41.366;-8.738;2022-09-13T04:58:02;74652.03;;;-144.74;91.70
61526;BME280;47394;41.366;-8.738;2022-09-13T05:00:04;74652.03;;;-144.74;91.84
61526;BME280;47394;41.366;-8.738;2022-09-13T05:02:05;74654.03;;;-144.74;91.72
61526;BME280;47394;41.366;-8.738;2022-09-13T05:04:06;74658.06;;;-144.74;91.62
61526;BME280;47394;41.366;-8.738;2022-09-13T05:06:11;74658.06;;;-144.74;91.69
61526;BME280;47394;41.366;-8.738;2022-09-13T05:08:12;74658.06;;;-144.74;91.74
61526;BME280;47394;41.366;-8.738;2022-09-13T05:10:13;74662.06;;;-144.74;91.52
61526;BME280;47394;41.366;-8.738;2022-09-13T05:12:14;74658.06;;;-144.74;91.85
61526;BME280;47394;41.366;-8.738;2022-09-13T05:14:14;74660.06;;;-144.74;91.48
61526;BME280;47394;41.366;-8.738;2022-09-13T05:16:15;74650.03;;;-144.74;91.53
61526;BME280;47394;41.366;-8.738;2022-09-13T05:18:16;74660.06;;;-144.74;91.84
61526;BME280;47394;41.366;-8.738;2022-09-13T05:20:17;74666.09;;;-144.74;92.52
61526;BME280;47394;41.366;-8.738;2022-09-13T05:22:17;74666.09;;;-144.74;93.19
61526;BME280;47394;41.366;-8.738;2022-09-13T05:24:18;74680.16;;;-144.74;93.70
61526;BME280;47394;41.366;-8.738;2022-09-13T05:26:20;74686.16;;;-144.74;93.65
61526;BME280;47394;41.366;-8.738;2022-09-13T05:28:22;74690.19;;;-144.74;93.96
61526;BME280;47394;41.366;-8.738;2022-09-13T05:30:23;74686.16;;;-144.74;94.04
61526;BME280;47394;41.366;-8.738;2022-09-13T05:32:24;74684.16;;;-144.74;94.32
61526;BME280;47394;41.366;-8.738;2022-09-13T05:34:24;74704.25;;;-144.74;94.68
61526;BME280;47394;41.366;-8.738;2022-09-13T05:36:25;74698.22;;;-144.74;95.56
61526;BME280;47394;41.366;-8.738;2022-09-13T05:38:26;74704.25;;;-144.74;96.15
61526;BME280;47394;41.366;-8.738;2022-09-13T05:40:27;74722.31;;;-144.74;96.50
61526;BME280;47394;41.366;-8.738;2022-09-13T05:42:27;74716.28;;;-144.74;96.80
61526;BME280;47394;41.366;-8.738;2022-09-13T05:44:28;74718.28;;;-144.74;97.13
61526;BME280;47394;41.366;-8.738;2022-09-13T05:46:29;74728.34;;;-144.74;97.40
61526;BME280;47394;41.366;-8.738;2022-09-13T05:48:30;74724.31;;;-144.74;97.74
61526;BME280;47394;41.366;-8.738;2022-09-13T05:50:36;74734.34;;;-144.74;97.93
61526;BME280;47394;41.366;-8.738;2022-09-13T05:52:37;74732.34;;;-144.74;98.40
61526;BME280;47394;41.366;-8.738;2022-09-13T05:54:37;74738.38;;;-144.74;98.96
61526;BME280;47394;41.366;-8.738;2022-09-13T05:56:38;74742.38;;;-144.74;99.15
61526;BME280;47394;41.366;-8.738;2022-09-13T05:58:44;74746.41;;;-144.74;98.99
61526;BME280;47394;41.366;-8.738;2022-09-13T06:00:52;74744.38;;;-144.74;99.02
61526;BME280;47394;41.366;-8.738;2022-09-13T06:02:54;74744.38;;;-144.74;99.15
61526;BME280;47394;41.366;-8.738;2022-09-13T06:04:55;74744.38;;;-144.74;99.60
61526;BME280;47394;41.366;-8.738;2022-09-13T06:06:56;74746.41;;;-144.74;99.88
61526;BME280;47394;41.366;-8.738;2022-09-13T06:08:57;74744.38;;;-144.74;99.97
61526;BME280;47394;41.366;-8.738;2022-09-13T06:12:59;74746.41;;;-144.74;100.00
61526;BME280;47394;41.366;-8.738;2022-09-13T06:15:00;74758.44;;;-144.74;100.00
61526;BME280;47394;41.366;-8.738;2022-09-13T06:17:00;74764.47;;;-144.74;100.00
61526;BME280;47394;41.366;-8.738;2022-09-13T06:19:01;74774.50;;;-144.74;100.00
61526;BME280;47394;41.366;-8.738;2022-09-13T06:21:05;74774.50;;;-144.74;100.00
61526;BME280;47394;41.366;-8.738;2022-09-13T06:23:06;74778.53;;;-144.74;100.00
61526;BME280;47394;41.366;-8.738;2022-09-13T06:25:07;74778.53;;;-144.74;100.00
61526;BME280;47394;41.366;-8.738;2022-09-13T06:27:08;74784.56;;;-144.74;100.00
61526;BME280;47394;41.366;-8.738;2022-09-13T06:29:12;74780.53;;;-144.74;100.00
61526;BME280;47394;41.366;-8.738;2022-09-13T06:31:14;74778.53;;;-144.74;100.00
61526;BME280;47394;41.366;-8.738;2022-09-13T06:33:15;74782.53;;;-144.74;100.00
61526;BME280;47394;41.366;-8.738;2022-09-13T06:35:15;74786.56;;;-144.74;100.00
61526;BME280;47394;41.366;-8.738;2022-09-13T06:37:17;74798.59;;;-144.74;100.00
61526;BME280;47394;41.366;-8.738;2022-09-13T06:39:17;74802.63;;;-144.74;100.00
61526;BME280;47394;41.366;-8.738;2022-09-13T06:41:20;74800.63;;;-144.74;100.00
61526;BME280;47394;41.366;-8.738;2022-09-13T06:43:22;74794.59;;;-144.74;100.00
61526;BME280;47394;41.366;-8.738;2022-09-13T06:45:23;74800.63;;;-144.74;100.00
61526;BME280;47394;41.366;-8.738;2022-09-13T06:47:23;74810.66;;;-144.74;100.00
61526;BME280;47394;41.366;-8.738;2022-09-13T06:49:25;74814.66;;;-144.74;100.00
61526;BME280;47394;41.366;-8.738;2022-09-13T06:51:28;74806.63;;;-144.74;100.00
61526;BME280;47394;41.366;-8.738;2022-09-13T06:53:32;74806.63;;;-144.74;100.00
61526;BME280;47394;41.366;-8.738;2022-09-13T06:55:33;74802.63;;;-144.74;100.00
61526;BME280;47394;41.366;-8.738;2022-09-13T06:57:34;74796.59;;;-144.74;100.00
61526;BME280;47394;41.366;-8.738;2022-09-13T06:59:34;74786.56;;;-144.74;100.00
61526;BME280;47394;41.366;-8.738;2022-09-13T07:01:40;74796.59;;;-144.74;100.00
61526;BME280;47394;41.366;-8.738;2022-09-13T07:03:47;74802.63;;;-144.74;100.00
61526;BME280;47394;41.366;-8.738;2022-09-13T07:05:48;74800.63;;;-144.74;100.00
61526;BME280;47394;41.366;-8.738;2022-09-13T07:07:49;74792.59;;;-144.74;100.00
61526;BME280;47394;41.366;-8.738;2022-09-13T07:09:49;74794.59;;;-144.74;100.00
61526;BME280;47394;41.366;-8.738;2022-09-13T07:11:52;74788.56;;;-144.74;100.00
61526;BME280;47394;41.366;-8.738;2022-09-13T07:13:55;74782.53;;;-144.74;100.00
61526;BME280;47394;41.366;-8.738;2022-09-13T07:15:56;74806.63;;;-144.74;100.00
61526;BME280;47394;41.366;-8.738;2022-09-13T07:18:00;74812.66;;;-144.74;100.00
61526;BME280;47394;41.366;-8.738;2022-09-13T07:20:00;74812.66;;;-144.74;100.00
61526;BME280;47394;41.366;-8.738;2022-09-13T07:22:01;74814.66;;;-144.74;100.00
61526;BME280;47394;41.366;-8.738;2022-09-13T07:24:02;74820.69;;;-144.74;100.00
61526;BME280;47394;41.366;-8.738;2022-09-13T07:26:05;74816.69;;;-144.74;100.00
61526;BME280;47394;41.366;-8.738;2022-09-13T07:28:06;74810.66;;;-144.74;100.00
61526;BME280;47394;41.366;-8.738;2022-09-13T07:30:07;74814.66;;;-144.74;100.00
61526;BME280;47394;41.366;-8.738;2022-09-13T07:32:08;74820.69;;;-144.74;100.00
61526;BME280;47394;41.366;-8.738;2022-09-13T07:34:13;74832.75;;;-144.74;100.00
61526;BME280;47394;41.366;-8.738;2022-09-13T07:36:15;74826.72;;;-144.74;100.00
61526;BME280;47394;41.366;-8.738;2022-09-13T07:38:15;74826.72;;;-144.74;100.00
61526;BME280;47394;41.366;-8.738;2022-09-13T07:40:16;74820.69;;;-144.74;100.00
61526;BME280;47394;41.366;-8.738;2022-09-13T07:42:17;74826.72;;;-144.74;100.00
61526;BME280;47394;41.366;-8.738;2022-09-13T07:44:17;74814.66;;;-144.74;100.00
61526;BME280;47394;41.366;-8.738;2022-09-13T07:46:22;74818.69;;;-144.74;100.00
61526;BME280;47394;41.366;-8.738;2022-09-13T07:48:24;74812.66;;;-144.74;100.00
61526;BME280;47394;41.366;-8.738;2022-09-13T07:50:25;74806.63;;;-144.74;100.00
61526;BME280;47394;41.366;-8.738;2022-09-13T07:52:27;74810.66;;;-144.74;100.00
61526;BME280;47394;41.366;-8.738;2022-09-13T07:54:28;74804.63;;;-144.74;100.00
61526;BME280;47394;41.366;-8.738;2022-09-13T07:56:31;74810.66;;;-144.74;100.00
61526;BME280;47394;41.366;-8.738;2022-09-13T07:58:34;74790.56;;;-144.74;100.00
61526;BME280;47394;41.366;-8.738;2022-09-13T08:00:35;74784.56;;;-144.74;100.00
61526;BME280;47394;41.366;-8.738;2022-09-13T08:02:36;74766.47;;;-144.74;100.00
61526;BME280;47394;41.366;-8.738;2022-09-13T08:04:36;74762.47;;;-144.74;100.00
61526;BME280;47394;41.366;-8.738;2022-09-13T08:06:38;74748.41;;;-144.74;100.00
61526;BME280;47394;41.366;-8.738;2022-09-13T08:08:39;74738.38;;;-144.74;100.00
61526;BME280;47394;41.366;-8.738;2022-09-13T08:10:40;74720.28;;;-144.74;100.00
61526;BME280;47394;41.366;-8.738;2022-09-13T08:12:40;74718.28;;;-144.74;99.45
61526;BME280;47394;41.366;-8.738;2022-09-13T08:14:41;74698.22;;;-144.74;97.73
61526;BME280;47394;41.366;-8.738;2022-09-13T08:16:42;74682.16;;;-144.74;97.11
61526;BME280;47394;41.366;-8.738;2022-09-13T08:18:51;74674.13;;;-144.74;96.17
61526;BME280;47394;41.366;-8.738;2022-09-13T08:20:55;74668.09;;;-144.74;95.72
61526;BME280;47394;41.366;-8.738;2022-09-13T08:22:56;74674.13;;;-144.74;95.62
61526;BME280;47394;41.366;-8.738;2022-09-13T08:24:57;74672.13;;;-144.74;95.67
61526;BME280;47394;41.366;-8.738;2022-09-13T08:26:57;74674.13;;;-144.74;95.68
61526;BME280;47394;41.366;-8.738;2022-09-13T08:29:00;74672.13;;;-144.74;95.01
61526;BME280;47394;41.366;-8.738;2022-09-13T08:31:10;74692.19;;;-144.74;94.98
61526;BME280;47394;41.366;-8.738;2022-09-13T08:33:11;74694.19;;;-144.74;95.50
61526;BME280;47394;41.366;-8.738;2022-09-13T08:35:12;74714.28;;;-144.74;96.70
61526;BME280;47394;41.366;-8.738;2022-09-13T08:37:12;74714.28;;;-144.74;96.87
61526;BME280;47394;41.366;-8.738;2022-09-13T08:39:13;74716.28;;;-144.74;97.45
61526;BME280;47394;41.366;-8.738;2022-09-13T08:43:48;74732.34;;;-144.74;98.33
61526;BME280;47394;41.366;-8.738;2022-09-13T08:45:52;74746.41;;;-144.74;99.04
61526;BME280;47394;41.366;-8.738;2022-09-13T08:48:12;74766.47;;;-144.74;100.00
61526;BME280;47394;41.366;-8.738;2022-09-13T08:50:21;74782.53;;;-144.74;100.00
61526;BME280;47394;41.366;-8.738;2022-09-13T08:52:47;74806.63;;;-144.74;100.00
61526;BME280;47394;41.366;-8.738;2022-09-13T08:54:51;74818.69;;;-144.74;100.00
61526;BME280;47394;41.366;-8.738;2022-09-13T08:57:19;74846.78;;;-144.74;100.00
61526;BME280;47394;41.366;-8.738;2022-09-13T09:02:12;74876.91;;;-144.74;100.00
61526;BME280;47394;41.366;-8.738;2022-09-13T09:04:37;74882.94;;;-144.74;100.00
61526;BME280;47394;41.366;-8.738;2022-09-13T09:06:39;74888.97;;;-144.74;100.00
61526;BME280;47394;41.366;-8.738;2022-09-13T09:10:52;74907.03;;;-144.74;100.00
61526;BME280;47394;41.366;-8.738;2022-09-13T09:13:04;74903.00;;;-144.74;100.00
61526;BME280;47394;41.366;-8.738;2022-09-13T09:15:17;74923.09;;;-144.74;100.00
61526;BME280;47394;41.366;-8.738;2022-09-13T09:17:24;74923.09;;;-144.74;100.00
61526;BME280;47394;41.366;-8.738;2022-09-13T09:19:32;74925.09;;;-144.74;100.00
61526;BME280;47394;41.366;-8.738;2022-09-13T09:21:35;74927.09;;;-144.74;100.00
61526;BME280;47394;41.366;-8.738;2022-09-13T09:23:50;74931.13;;;-144.74;100.00
61526;BME280;47394;41.366;-8.738;2022-09-13T09:25:56;74941.16;;;-144.74;100.00
61526;BME280;47394;41.366;-8.738;2022-09-13T09:27:58;74951.19;;;-144.74;100.00
61526;BME280;47394;41.366;-8.738;2022-09-13T09:29:59;74951.19;;;-144.74;100.00
61526;BME280;47394;41.366;-8.738;2022-09-13T09:36:39;74967.28;;;-144.74;100.00
61526;BME280;47394;41.366;-8.738;2022-09-13T09:38:42;74971.28;;;-144.74;100.00
61526;BME280;47394;41.366;-8.738;2022-09-13T09:40:44;74979.31;;;-144.74;100.00
61526;BME280;47394;41.366;-8.738;2022-09-13T09:42:47;74971.28;;;-144.74;100.00
61526;BME280;47394;41.366;-8.738;2022-09-13T09:44:51;74967.28;;;-144.74;100.00
61526;BME280;47394;41.366;-8.738;2022-09-13T09:47:15;74967.28;;;-144.74;100.00
61526;BME280;47394;41.366;-8.738;2022-09-13T09:51:36;74965.25;;;-144.74;100.00
61526;BME280;47394;41.366;-8.738;2022-09-13T09:53:46;74957.22;;;-144.74;100.00
61526;BME280;47394;41.366;-8.738;2022-09-13T09:58:16;74939.16;;;-144.74;100.00
61526;BME280;47394;41.366;-8.738;2022-09-13T10:00:18;74941.16;;;-144.74;100.00
61526;BME280;47394;41.366;-8.738;2022-09-13T10:02:20;74937.16;;;-144.74;100.00
61526;BME280;47394;41.366;-8.738;2022-09-13T10:04:21;74953.22;;;-144.74;100.00
61526;BME280;47394;41.366;-8.738;2022-09-13T10:06:24;74953.22;;;-144.74;100.00
61526;BME280;47394;41.366;-8.738;2022-09-13T10:08:32;74955.22;;;-144.74;100.00
61526;BME280;47394;41.366;-8.738;2022-09-13T10:10:43;74947.19;;;-144.74;100.00
61526;BME280;47394;41.366;-8.738;2022-09-13T10:12:54;74927.09;;;-144.74;100.00
61526;BME280;47394;41.366;-8.738;2022-09-13T10:15:18;74899.00;;;-144.74;100.00
61526;BME280;47394;41.366;-8.738;2022-09-13T10:17:28;74866.88;;;-144.74;100.00
61526;BME280;47394;41.366;-8.738;2022-09-13T10:19:29;74850.81;;;-144.74;100.00
61526;BME280;47394;41.366;-8.738;2022-09-13T10:21:31;74832.75;;;-144.74;100.00
61526;BME280;47394;41.366;-8.738;2022-09-13T10:23:35;74822.69;;;-144.74;100.00
61526;BME280;47394;41.366;-8.738;2022-09-13T10:25:36;74802.63;;;-144.74;100.00
61526;BME280;47394;41.366;-8.738;2022-09-13T10:27:40;74792.59;;;-144.74;100.00
61526;BME280;47394;41.366;-8.738;2022-09-13T10:29:49;74774.50;;;-144.74;100.00
61526;BME280;47394;41.366;-8.738;2022-09-13T10:31:51;74774.50;;;-144.74;100.00
61526;BME280;47394;41.366;-8.738;2022-09-13T10:33:57;74752.44;;;-144.74;100.00
61526;BME280;47394;41.366;-8.738;2022-09-13T10:36:05;74748.41;;;-144.74;100.00
61526;BME280;47394;41.366;-8.738;2022-09-13T10:38:23;74734.34;;;-144.74;100.00
61526;BME280;47394;41.366;-8.738;2022-09-13T10:40:30;74724.31;;;-144.74;99.61
61526;BME280;47394;41.366;-8.738;2022-09-13T10:42:33;74728.34;;;-144.74;98.86
61526;BME280;47394;41.366;-8.738;2022-09-13T10:44:44;74732.34;;;-144.74;98.28
61526;BME280;47394;41.366;-8.738;2022-09-13T10:46:47;74734.34;;;-144.74;99.11
61526;BME280;47394;41.366;-8.738;2022-09-13T10:48:48;74720.28;;;-144.74;98.76
61526;BME280;47394;41.366;-8.738;2022-09-13T10:51:07;74716.28;;;-144.74;98.50
61526;BME280;47394;41.366;-8.738;2022-09-13T10:53:35;74702.22;;;-144.74;98.49
61526;BME280;47394;41.366;-8.738;2022-09-13T10:55:37;74692.19;;;-144.74;98.30
61526;BME280;47394;41.366;-8.738;2022-09-13T10:57:42;74696.22;;;-144.74;97.11
61526;BME280;47394;41.366;-8.738;2022-09-13T10:59:51;74690.19;;;-144.74;96.50
61526;BME280;47394;41.366;-8.738;2022-09-13T11:09:15;74682.16;;;-144.74;95.62
61526;BME280;47394;41.366;-8.738;2022-09-13T11:18:51;74656.06;;;-144.74;93.31
61526;BME280;47394;41.366;-8.738;2022-09-13T11:23:43;74625.94;;;-144.74;92.91
61526;BME280;47394;41.366;-8.738;2022-09-13T11:26:19;74629.94;;;-144.74;91.08
61526;BME280;47394;41.366;-8.738;2022-09-13T11:54:29;74579.75;;;-144.74;86.30
61526;BME280;47394;41.366;-8.738;2022-09-13T11:56:38;74589.78;;;-144.74;85.54
61526;BME280;47394;41.366;-8.738;2022-09-13T12:00:54;74581.75;;;-144.74;86.09
61526;BME280;47394;41.366;-8.738;2022-09-13T12:03:01;74591.81;;;-144.74;85.55
61526;BME280;47394;41.366;-8.738;2022-09-13T12:05:34;74585.78;;;-144.74;85.75
61526;BME280;47394;41.366;-8.738;2022-09-13T12:07:46;74591.81;;;-144.74;85.18
61526;BME280;47394;41.366;-8.738;2022-09-13T12:09:56;74589.78;;;-144.74;85.12
61526;BME280;47394;41.366;-8.738;2022-09-13T12:12:12;74621.91;;;-144.74;84.48
61526;BME280;47394;41.366;-8.738;2022-09-13T12:14:21;74627.94;;;-144.74;85.40
61526;BME280;47394;41.366;-8.738;2022-09-13T12:16:42;74648.03;;;-144.74;85.83
61526;BME280;47394;41.366;-8.738;2022-09-13T12:19:00;74642.00;;;-144.74;86.84
61526;BME280;47394;41.366;-8.738;2022-09-13T12:21:14;74648.03;;;-144.74;86.93
61526;BME280;47394;41.366;-8.738;2022-09-13T12:23:34;74644.00;;;-144.74;86.96
61526;BME280;47394;41.366;-8.738;2022-09-13T12:25:45;74642.00;;;-144.74;86.78
61526;BME280;47394;41.366;-8.738;2022-09-13T12:27:55;74619.91;;;-144.74;86.98
61526;BME280;47394;41.366;-8.738;2022-09-13T12:30:15;74619.91;;;-144.74;86.61
61526;BME280;47394;41.366;-8.738;2022-09-13T12:32:17;74611.88;;;-144.74;86.16
61526;BME280;47394;41.366;-8.738;2022-09-13T12:34:25;74597.81;;;-144.74;86.41
61526;BME280;47394;41.366;-8.738;2022-09-13T12:43:51;74605.84;;;-144.74;86.36
61526;BME280;47394;41.366;-8.738;2022-09-13T12:51:06;74591.81;;;-144.74;86.25
61526;BME280;47394;41.366;-8.738;2022-09-13T13:00:36;74613.88;;;-144.74;86.32
61526;BME280;47394;41.366;-8.738;2022-09-13T13:02:43;74607.88;;;-144.74;86.63